createdAt,value
2018-02-27T00:00:44.903Z,0.00
2018-02-27T00:01:44.813Z,0.00
2018-02-27T00:03:36.519Z,0.00
2018-02-27T00:04:36.444Z,0.00
2018-02-27T00:06:28.217Z,0.00
2018-02-27T00:07:28.112Z,0.00
2018-02-27T00:09:19.834Z,0.00
2018-02-27T00:10:19.758Z,0.00
2018-02-27T00:12:11.497Z,0.00
2018-02-27T00:13:11.402Z,0.00
2018-02-27T00:15:03.190Z,0.00
2018-02-27T00:16:03.109Z,0.00
2018-02-27T00:17:54.853Z,0.00
2018-02-27T00:18:54.763Z,0.00
2018-02-27T00:20:46.482Z,0.00
2018-02-27T00:21:46.407Z,0.00
2018-02-27T00:23:38.168Z,0.00
2018-02-27T00:24:38.080Z,0.00
2018-02-27T00:26:29.807Z,0.00
2018-02-27T00:27:29.752Z,0.00
2018-02-27T00:29:21.462Z,0.00
2018-02-27T00:30:21.377Z,0.00
2018-02-27T00:32:13.113Z,0.00
2018-02-27T00:33:13.035Z,0.00
2018-02-27T00:35:04.765Z,0.00
2018-02-27T00:36:04.686Z,0.00
2018-02-27T00:37:56.408Z,0.00
2018-02-27T00:38:56.331Z,0.00
2018-02-27T00:40:48.564Z,0.00
2018-02-27T00:41:48.476Z,0.00
2018-02-27T00:43:40.269Z,0.00
2018-02-27T00:44:40.165Z,0.00
2018-02-27T00:46:31.910Z,0.00
2018-02-27T00:47:31.837Z,0.00
2018-02-27T00:49:23.564Z,0.00
2018-02-27T00:50:23.472Z,0.00
2018-02-27T00:52:15.206Z,0.00
2018-02-27T00:53:15.134Z,0.00
2018-02-27T00:55:06.895Z,0.00
2018-02-27T00:56:06.814Z,0.00
2018-02-27T00:57:58.508Z,0.00
2018-02-27T00:58:58.429Z,0.00
2018-02-27T01:00:50.157Z,0.00
2018-02-27T01:01:50.069Z,0.00
2018-02-27T01:03:41.811Z,0.00
2018-02-27T01:04:41.727Z,0.00
2018-02-27T01:06:33.468Z,0.00
2018-02-27T01:07:33.376Z,0.00
2018-02-27T01:09:25.103Z,0.00
2018-02-27T01:10:25.032Z,0.00
2018-02-27T01:12:16.757Z,0.00
2018-02-27T01:13:16.673Z,0.00
2018-02-27T01:15:08.415Z,0.00
2018-02-27T01:16:08.334Z,0.00
2018-02-27T01:18:00.076Z,0.00
2018-02-27T01:18:59.993Z,0.00
2018-02-27T01:20:51.739Z,0.00
2018-02-27T01:21:51.649Z,0.00
2018-02-27T01:23:43.365Z,0.00
2018-02-27T01:24:43.294Z,0.00
2018-02-27T01:26:35.036Z,0.00
2018-02-27T01:27:34.949Z,0.00
2018-02-27T01:29:26.695Z,0.00
2018-02-27T01:30:26.624Z,0.00
2018-02-27T01:32:18.365Z,0.00
2018-02-27T01:33:18.277Z,0.00
2018-02-27T01:35:10.009Z,0.00
2018-02-27T01:36:09.933Z,0.00
2018-02-27T01:38:01.665Z,0.00
2018-02-27T01:39:01.578Z,0.00
2018-02-27T01:40:53.299Z,0.00
2018-02-27T01:41:53.225Z,0.00
2018-02-27T01:43:44.986Z,0.00
2018-02-27T01:44:44.901Z,0.00
2018-02-27T01:46:36.708Z,0.00
2018-02-27T01:47:36.611Z,0.00
2018-02-27T01:49:28.326Z,0.00
2018-02-27T01:50:28.252Z,0.00
2018-02-27T01:52:20.095Z,0.00
2018-02-27T01:53:19.925Z,0.00
2018-02-27T01:55:11.671Z,0.00
2018-02-27T01:56:11.586Z,0.00
2018-02-27T01:58:03.318Z,0.00
2018-02-27T01:59:03.233Z,0.00
2018-02-27T02:00:54.973Z,0.00
2018-02-27T02:01:54.898Z,0.00
2018-02-27T02:03:46.627Z,0.00
2018-02-27T02:04:46.537Z,0.00
2018-02-27T02:06:38.289Z,0.00
2018-02-27T02:07:38.217Z,0.00
2018-02-27T02:09:29.969Z,0.00
2018-02-27T02:10:29.885Z,0.00
2018-02-27T02:12:21.640Z,0.00
2018-02-27T02:13:21.555Z,0.00
2018-02-27T02:15:13.317Z,0.00
2018-02-27T02:16:13.230Z,0.00
2018-02-27T02:18:04.969Z,0.00
2018-02-27T02:19:04.897Z,0.00
2018-02-27T02:20:56.658Z,0.00
2018-02-27T02:21:56.558Z,0.00
2018-02-27T02:23:48.423Z,0.00
2018-02-27T02:24:48.327Z,0.00
2018-02-27T02:26:40.072Z,0.00
2018-02-27T02:27:39.975Z,0.00
2018-02-27T02:29:31.694Z,0.00
2018-02-27T02:30:31.618Z,0.00
2018-02-27T02:32:23.356Z,0.00
2018-02-27T02:33:23.269Z,0.00
2018-02-27T02:35:14.989Z,0.00
2018-02-27T02:36:14.914Z,0.00
2018-02-27T02:38:06.650Z,0.00
2018-02-27T02:39:06.559Z,0.00
2018-02-27T02:40:58.278Z,0.00
2018-02-27T02:41:58.205Z,0.00
2018-02-27T02:43:49.949Z,0.00
2018-02-27T02:44:49.848Z,0.00
2018-02-27T02:46:41.619Z,0.00
2018-02-27T02:47:41.543Z,0.00
2018-02-27T02:49:33.275Z,0.00
2018-02-27T02:50:33.188Z,0.00
2018-02-27T02:52:24.952Z,0.00
2018-02-27T02:53:24.859Z,0.00
2018-02-27T02:55:16.589Z,0.00
2018-02-27T02:56:16.511Z,0.00
2018-02-27T02:58:08.316Z,0.00
2018-02-27T02:59:08.201Z,0.00
2018-02-27T03:00:59.940Z,0.00
2018-02-27T03:01:59.878Z,0.00
2018-02-27T03:03:51.625Z,0.00
2018-02-27T03:04:51.537Z,0.00
2018-02-27T03:06:43.257Z,0.00
2018-02-27T03:07:43.228Z,0.00
2018-02-27T03:09:34.914Z,0.00
2018-02-27T03:10:34.820Z,0.00
2018-02-27T03:12:26.614Z,0.00
2018-02-27T03:13:26.473Z,0.00
2018-02-27T03:15:18.202Z,0.00
2018-02-27T03:16:18.114Z,0.00
2018-02-27T03:18:09.840Z,0.00
2018-02-27T03:19:09.789Z,0.00
2018-02-27T03:21:01.527Z,0.00
2018-02-27T03:22:01.442Z,0.00
2018-02-27T03:23:53.215Z,0.00
2018-02-27T03:24:53.134Z,0.00
2018-02-27T03:26:44.901Z,0.00
2018-02-27T03:27:44.818Z,0.00
2018-02-27T03:29:36.548Z,0.00
2018-02-27T03:30:36.509Z,0.00
2018-02-27T03:32:28.209Z,0.00
2018-02-27T03:33:28.185Z,0.00
2018-02-27T03:35:19.885Z,0.00
2018-02-27T03:36:19.806Z,0.00
2018-02-27T03:38:11.565Z,0.00
2018-02-27T03:39:11.480Z,0.00
2018-02-27T03:41:03.279Z,0.00
2018-02-27T03:42:03.200Z,0.00
2018-02-27T03:43:54.918Z,0.00
2018-02-27T03:44:54.958Z,0.00
2018-02-27T03:46:46.587Z,0.00
2018-02-27T03:47:46.501Z,0.00
2018-02-27T03:49:38.227Z,0.00
2018-02-27T03:50:38.145Z,0.00
2018-02-27T03:52:29.911Z,0.00
2018-02-27T03:53:29.838Z,0.00
2018-02-27T03:55:21.528Z,0.00
2018-02-27T03:56:21.456Z,0.00
2018-02-27T03:58:13.262Z,0.00
2018-02-27T03:59:13.112Z,0.00
2018-02-27T04:01:04.875Z,0.00
2018-02-27T04:02:04.804Z,0.00
2018-02-27T04:03:56.551Z,0.00
2018-02-27T04:04:56.459Z,0.00
2018-02-27T04:06:48.181Z,0.00
2018-02-27T04:07:48.102Z,0.00
2018-02-27T04:09:39.832Z,0.00
2018-02-27T04:10:39.740Z,0.00
2018-02-27T04:12:31.462Z,0.00
2018-02-27T04:13:31.389Z,0.00
2018-02-27T04:15:23.220Z,0.00
2018-02-27T04:16:23.130Z,0.00
2018-02-27T04:18:14.882Z,0.00
2018-02-27T04:19:14.809Z,0.00
2018-02-27T04:21:06.624Z,0.00
2018-02-27T04:22:06.548Z,0.00
2018-02-27T04:23:58.261Z,0.00
2018-02-27T04:24:58.183Z,0.00
2018-02-27T04:26:49.923Z,0.00
2018-02-27T04:27:49.844Z,0.00
2018-02-27T04:29:41.572Z,0.00
2018-02-27T04:30:41.493Z,0.00
2018-02-27T04:32:33.244Z,0.00
2018-02-27T04:33:33.157Z,0.00
2018-02-27T04:35:24.924Z,0.00
2018-02-27T04:36:24.825Z,0.00
2018-02-27T04:38:16.577Z,0.00
2018-02-27T04:39:16.496Z,0.00
2018-02-27T04:41:08.231Z,0.00
2018-02-27T04:42:08.143Z,0.00
2018-02-27T04:43:59.929Z,0.00
2018-02-27T04:44:59.866Z,0.00
2018-02-27T04:46:51.625Z,0.00
2018-02-27T04:47:51.530Z,0.00
2018-02-27T04:49:43.339Z,0.00
2018-02-27T04:50:43.266Z,0.00
2018-02-27T04:52:35.000Z,0.00
2018-02-27T04:53:34.915Z,0.00
2018-02-27T04:55:26.666Z,0.00
2018-02-27T04:56:26.560Z,0.00
2018-02-27T04:58:18.306Z,0.00
2018-02-27T04:59:18.226Z,0.00
2018-02-27T05:01:09.963Z,0.00
2018-02-27T05:02:09.874Z,0.00
2018-02-27T05:04:01.595Z,0.00
2018-02-27T05:05:01.514Z,0.00
2018-02-27T05:06:53.251Z,0.00
2018-02-27T05:07:53.159Z,0.00
2018-02-27T05:09:44.909Z,0.00
2018-02-27T05:10:44.831Z,0.00
2018-02-27T05:12:36.562Z,0.00
2018-02-27T05:13:36.467Z,0.00
2018-02-27T05:15:28.196Z,0.00
2018-02-27T05:16:28.113Z,0.00
2018-02-27T05:18:19.848Z,0.00
2018-02-27T05:19:19.763Z,0.00
2018-02-27T05:21:11.496Z,0.00
2018-02-27T05:22:11.414Z,0.00
2018-02-27T05:24:03.150Z,0.00
2018-02-27T05:25:03.066Z,0.00
2018-02-27T05:26:54.811Z,0.00
2018-02-27T05:27:54.717Z,0.00
2018-02-27T05:29:46.443Z,0.00
2018-02-27T05:30:46.365Z,0.00
2018-02-27T05:32:38.111Z,0.00
2018-02-27T05:33:38.016Z,0.00
2018-02-27T05:35:29.763Z,0.00
2018-02-27T05:36:29.682Z,0.00
2018-02-27T05:38:21.416Z,0.00
2018-02-27T05:39:21.330Z,0.00
2018-02-27T05:41:13.067Z,0.00
2018-02-27T05:42:12.986Z,0.00
2018-02-27T05:44:04.716Z,5.63
2018-02-27T05:45:04.628Z,5.63
2018-02-27T05:46:56.350Z,5.63
2018-02-27T05:47:56.267Z,5.63
2018-02-27T05:49:48.008Z,11.25
2018-02-27T05:50:47.917Z,11.25
2018-02-27T05:52:39.632Z,11.25
2018-02-27T05:53:39.560Z,16.88
2018-02-27T05:55:31.314Z,16.88
2018-02-27T05:56:31.244Z,16.88
2018-02-27T05:58:22.967Z,22.50
2018-02-27T05:59:22.890Z,28.13
2018-02-27T06:01:14.639Z,28.13
2018-02-27T06:02:14.550Z,33.75
2018-02-27T06:04:06.308Z,39.38
2018-02-27T06:05:06.209Z,39.38
2018-02-27T06:06:57.942Z,45.00
2018-02-27T06:07:57.863Z,50.63
2018-02-27T06:09:49.615Z,56.25
2018-02-27T06:10:49.557Z,56.25
2018-02-27T06:12:41.305Z,67.50
2018-02-27T06:13:41.228Z,73.13
2018-02-27T06:15:33.000Z,78.75
2018-02-27T06:16:32.875Z,78.75
2018-02-27T06:18:24.805Z,84.38
2018-02-27T06:19:24.540Z,90.00
2018-02-27T06:21:16.277Z,95.63
2018-02-27T06:22:16.201Z,101.25
2018-02-27T06:24:07.947Z,106.88
2018-02-27T06:25:07.835Z,106.88
2018-02-27T06:26:59.798Z,112.50
2018-02-27T06:27:59.731Z,118.13
2018-02-27T06:29:51.501Z,123.75
2018-02-27T06:30:51.417Z,129.38
2018-02-27T06:32:43.164Z,140.63
2018-02-27T06:33:43.088Z,151.88
2018-02-27T06:35:34.842Z,157.50
2018-02-27T06:36:34.752Z,163.13
2018-02-27T06:38:26.486Z,185.63
2018-02-27T06:39:26.412Z,196.88
2018-02-27T06:41:18.239Z,213.75
2018-02-27T06:42:18.142Z,230.63
2018-02-27T06:44:09.915Z,247.50
2018-02-27T06:45:09.791Z,258.75
2018-02-27T06:47:01.693Z,270.00
2018-02-27T06:48:01.616Z,275.63
2018-02-27T06:49:53.360Z,286.88
2018-02-27T06:50:53.262Z,298.13
2018-02-27T06:52:45.000Z,326.25
2018-02-27T06:53:51.185Z,343.13
2018-02-27T06:55:36.737Z,371.25
2018-02-27T06:56:36.614Z,371.25
2018-02-27T06:58:28.383Z,376.88
2018-02-27T06:59:28.292Z,371.25
2018-02-27T07:01:20.056Z,388.13
2018-02-27T07:02:19.982Z,405.00
2018-02-27T07:04:11.758Z,444.38
2018-02-27T07:05:11.624Z,466.88
2018-02-27T07:07:03.366Z,489.38
2018-02-27T07:08:03.293Z,500.63
2018-02-27T07:09:55.030Z,517.50
2018-02-27T07:10:54.945Z,523.13
2018-02-27T07:12:46.665Z,556.88
2018-02-27T07:13:46.597Z,568.13
2018-02-27T07:15:38.375Z,585.00
2018-02-27T07:16:38.259Z,585.00
2018-02-27T07:18:30.081Z,776.25
2018-02-27T07:19:29.929Z,1603.13
2018-02-27T07:21:21.702Z,1895.63
2018-02-27T07:22:21.625Z,855.00
2018-02-27T07:24:13.414Z,1158.75
2018-02-27T07:25:13.340Z,1102.50
2018-02-27T07:27:05.088Z,663.75
2018-02-27T07:28:04.998Z,680.63
2018-02-27T07:29:56.757Z,877.50
2018-02-27T07:30:56.668Z,990.00
2018-02-27T07:32:48.428Z,658.13
2018-02-27T07:33:48.346Z,765.00
2018-02-27T07:35:40.119Z,990.00
2018-02-27T07:36:40.014Z,933.75
2018-02-27T07:38:32.852Z,1125.00
2018-02-27T07:39:32.682Z,798.75
2018-02-27T07:41:24.438Z,793.13
2018-02-27T07:42:24.384Z,815.63
2018-02-27T07:44:16.118Z,759.38
2018-02-27T07:45:16.038Z,1074.38
2018-02-27T07:47:07.817Z,798.75
2018-02-27T07:48:07.707Z,843.75
2018-02-27T07:49:59.450Z,1479.38
2018-02-27T07:50:59.384Z,2233.13
2018-02-27T07:52:51.133Z,2272.50
2018-02-27T07:53:51.047Z,2064.38
2018-02-27T07:55:42.962Z,2615.63
2018-02-27T07:56:42.879Z,2227.50
2018-02-27T07:58:35.655Z,2120.63
2018-02-27T07:59:35.578Z,2520.00
2018-02-27T08:01:27.383Z,2970.00
2018-02-27T08:02:27.310Z,3195.00
2018-02-27T08:04:20.081Z,3178.13
2018-02-27T08:05:19.999Z,3341.25
2018-02-27T08:07:12.805Z,3920.63
2018-02-27T08:08:12.704Z,3988.13
2018-02-27T08:10:05.490Z,4185.00
2018-02-27T08:11:05.416Z,4095.00
2018-02-27T08:12:58.193Z,3459.38
2018-02-27T08:13:58.124Z,3481.88
2018-02-27T08:15:50.893Z,3836.25
2018-02-27T08:16:50.830Z,3622.50
2018-02-27T08:18:43.635Z,3706.88
2018-02-27T08:19:43.559Z,2227.50
2018-02-27T08:21:36.324Z,1563.75
2018-02-27T08:22:36.261Z,1265.63
2018-02-27T08:24:29.037Z,2345.63
2018-02-27T08:25:28.967Z,1659.38
2018-02-27T08:27:21.738Z,1597.50
2018-02-27T08:28:21.673Z,1338.75
2018-02-27T08:30:14.447Z,916.88
2018-02-27T08:31:14.386Z,871.88
2018-02-27T08:33:07.138Z,832.50
2018-02-27T08:34:07.071Z,759.38
2018-02-27T08:35:59.832Z,646.88
2018-02-27T08:36:59.758Z,624.38
2018-02-27T08:38:52.562Z,601.88
2018-02-27T08:39:52.456Z,596.25
2018-02-27T08:41:45.223Z,573.75
2018-02-27T08:42:45.145Z,551.25
2018-02-27T08:44:36.983Z,489.38
2018-02-27T08:45:36.903Z,478.13
2018-02-27T08:47:28.850Z,478.13
2018-02-27T08:48:28.779Z,466.88
2018-02-27T08:50:20.767Z,472.50
2018-02-27T08:51:20.666Z,478.13
2018-02-27T08:53:13.424Z,517.50
2018-02-27T08:54:13.358Z,528.75
2018-02-27T08:56:06.119Z,540.00
2018-02-27T08:57:06.045Z,545.63
2018-02-27T08:58:58.807Z,506.25
2018-02-27T08:59:58.739Z,511.88
2018-02-27T09:01:51.518Z,568.13
2018-02-27T09:02:51.437Z,568.13
2018-02-27T09:04:43.180Z,590.63
2018-02-27T09:05:43.107Z,601.88
2018-02-27T09:07:34.895Z,641.25
2018-02-27T09:08:34.813Z,641.25
2018-02-27T09:10:26.551Z,669.38
2018-02-27T09:11:26.486Z,624.38
2018-02-27T09:13:19.241Z,669.38
2018-02-27T09:14:19.162Z,703.13
2018-02-27T09:16:11.003Z,663.75
2018-02-27T09:17:10.915Z,652.50
2018-02-27T09:19:02.720Z,630.00
2018-02-27T09:20:02.646Z,641.25
2018-02-27T09:21:54.547Z,731.25
2018-02-27T09:22:54.468Z,753.75
2018-02-27T09:24:47.220Z,843.75
2018-02-27T09:25:47.154Z,871.88
2018-02-27T09:27:39.913Z,967.50
2018-02-27T09:28:39.836Z,950.63
2018-02-27T09:30:32.590Z,956.25
2018-02-27T09:31:32.511Z,1057.50
2018-02-27T09:33:25.273Z,922.50
2018-02-27T09:34:25.187Z,967.50
2018-02-27T09:36:17.940Z,1113.75
2018-02-27T09:37:17.871Z,1237.50
2018-02-27T09:39:10.656Z,1243.13
2018-02-27T09:40:10.574Z,1383.75
2018-02-27T09:42:03.323Z,1423.13
2018-02-27T09:43:03.257Z,1423.13
2018-02-27T09:44:55.196Z,1591.88
2018-02-27T09:45:55.149Z,1558.13
2018-02-27T09:47:47.901Z,1260.00
2018-02-27T09:48:47.814Z,1198.13
2018-02-27T09:50:39.621Z,1395.00
2018-02-27T09:51:39.558Z,1569.38
2018-02-27T09:53:31.307Z,1575.00
2018-02-27T09:54:31.248Z,1833.75
2018-02-27T09:56:22.987Z,2030.63
2018-02-27T09:57:22.921Z,2115.00
2018-02-27T09:59:15.708Z,2559.38
2018-02-27T10:00:15.624Z,2823.75
2018-02-27T10:02:08.401Z,2677.50
2018-02-27T10:03:08.320Z,2902.50
2018-02-27T10:05:01.099Z,2306.25
2018-02-27T10:06:01.018Z,1642.50
2018-02-27T10:07:53.797Z,1423.13
2018-02-27T10:08:53.729Z,1771.88
2018-02-27T10:10:46.512Z,3510.00
2018-02-27T10:11:46.436Z,3414.38
2018-02-27T10:13:39.211Z,3645.00
2018-02-27T10:14:39.301Z,3661.88
2018-02-27T10:16:31.949Z,3808.13
2018-02-27T10:17:31.881Z,3645.00
2018-02-27T10:19:24.674Z,3481.88
2018-02-27T10:20:24.591Z,3369.38
2018-02-27T10:22:17.201Z,3144.38
2018-02-27T10:23:16.381Z,2891.25
2018-02-27T10:25:08.172Z,1681.88
2018-02-27T10:26:08.100Z,1850.63
2018-02-27T10:28:00.878Z,2525.63
2018-02-27T10:29:00.856Z,3043.13
2018-02-27T10:30:53.640Z,1698.75
2018-02-27T10:31:53.570Z,1524.38
2018-02-27T10:33:46.363Z,1271.25
2018-02-27T10:34:46.289Z,1473.75
2018-02-27T10:36:39.276Z,1299.38
2018-02-27T10:37:38.158Z,1395.00
2018-02-27T10:39:30.155Z,1445.63
2018-02-27T10:40:30.066Z,1462.50
2018-02-27T10:42:22.857Z,1170.00
2018-02-27T10:43:22.789Z,1327.50
2018-02-27T10:45:14.729Z,860.63
2018-02-27T10:46:14.675Z,956.25
2018-02-27T10:48:06.548Z,883.13
2018-02-27T10:49:06.479Z,961.88
2018-02-27T10:50:58.325Z,1102.50
2018-02-27T10:51:58.265Z,1147.50
2018-02-27T10:53:50.171Z,1350.00
2018-02-27T10:54:50.105Z,1395.00
2018-02-27T10:56:41.952Z,1456.88
2018-02-27T10:57:41.882Z,1451.25
2018-02-27T10:59:34.656Z,1136.25
2018-02-27T11:00:34.590Z,1305.00
2018-02-27T11:02:27.363Z,1220.63
2018-02-27T11:03:27.300Z,1327.50
2018-02-27T11:05:19.108Z,1198.13
2018-02-27T11:06:19.046Z,1209.38
2018-02-27T11:08:10.821Z,1096.88
2018-02-27T11:09:10.748Z,1029.38
2018-02-27T11:11:03.517Z,995.63
2018-02-27T11:12:03.450Z,961.88
2018-02-27T11:13:56.244Z,1051.88
2018-02-27T11:14:56.152Z,1327.50
2018-02-27T11:16:48.918Z,1316.25
2018-02-27T11:17:48.856Z,1046.25
2018-02-27T11:19:40.722Z,1305.00
2018-02-27T11:20:40.682Z,1395.00
2018-02-27T11:22:33.403Z,1085.63
2018-02-27T11:23:33.437Z,1175.63
2018-02-27T11:25:25.355Z,1186.88
2018-02-27T11:26:25.247Z,1046.25
2018-02-27T11:28:18.003Z,973.13
2018-02-27T11:29:17.935Z,911.25
2018-02-27T11:31:10.732Z,793.13
2018-02-27T11:32:10.803Z,776.25
2018-02-27T11:34:03.413Z,793.13
2018-02-27T11:35:03.339Z,866.25
2018-02-27T11:36:56.111Z,1321.88
2018-02-27T11:37:56.035Z,1226.25
2018-02-27T11:39:48.860Z,1085.63
2018-02-27T11:40:48.783Z,990.00
2018-02-27T11:42:41.652Z,939.38
2018-02-27T11:43:41.584Z,821.25
2018-02-27T11:45:34.385Z,742.50
2018-02-27T11:46:34.301Z,725.63
2018-02-27T11:48:27.066Z,691.88
2018-02-27T11:49:27.024Z,691.88
2018-02-27T11:51:18.757Z,686.25
2018-02-27T11:52:18.683Z,680.63
2018-02-27T11:54:11.482Z,680.63
2018-02-27T11:55:11.404Z,675.00
2018-02-27T11:57:03.205Z,663.75
2018-02-27T11:58:03.125Z,658.13
2018-02-27T11:59:55.059Z,646.88
2018-02-27T12:00:54.988Z,630.00
2018-02-27T12:02:47.766Z,618.75
2018-02-27T12:03:47.688Z,596.25
2018-02-27T12:05:40.481Z,585.00
2018-02-27T12:06:40.396Z,562.50
2018-02-27T12:08:33.307Z,568.13
2018-02-27T12:09:33.313Z,562.50
2018-02-27T12:11:25.068Z,556.88
2018-02-27T12:12:24.987Z,551.25
2018-02-27T12:14:16.766Z,545.63
2018-02-27T12:15:16.674Z,540.00
2018-02-27T12:17:08.436Z,528.75
2018-02-27T12:18:08.347Z,534.38
2018-02-27T12:20:01.095Z,540.00
2018-02-27T12:21:01.062Z,545.63
2018-02-27T12:22:53.797Z,579.38
2018-02-27T12:23:53.707Z,596.25
2018-02-27T12:25:46.480Z,624.38
2018-02-27T12:26:46.395Z,646.88
2018-02-27T12:28:39.182Z,641.25
2018-02-27T12:29:39.198Z,641.25
2018-02-27T12:31:30.871Z,641.25
2018-02-27T12:32:30.810Z,635.63
2018-02-27T12:34:22.553Z,641.25
2018-02-27T12:35:22.474Z,630.00
2018-02-27T12:37:15.224Z,646.88
2018-02-27T12:38:15.416Z,691.88
2018-02-27T12:40:06.927Z,658.13
2018-02-27T12:41:06.842Z,630.00
2018-02-27T12:42:58.620Z,585.00
2018-02-27T12:43:58.511Z,624.38
2018-02-27T12:45:50.313Z,658.13
2018-02-27T12:46:50.311Z,658.13
2018-02-27T12:48:42.017Z,585.00
2018-02-27T12:49:41.936Z,579.38
2018-02-27T12:51:33.713Z,562.50
2018-02-27T12:52:33.640Z,568.13
2018-02-27T12:54:25.401Z,596.25
2018-02-27T12:55:25.317Z,630.00
2018-02-27T12:57:17.081Z,708.75
2018-02-27T12:58:17.015Z,725.63
2018-02-27T13:00:08.825Z,708.75
2018-02-27T13:01:08.746Z,635.63
2018-02-27T13:03:00.579Z,556.88
2018-02-27T13:04:00.677Z,551.25
2018-02-27T13:05:52.411Z,540.00
2018-02-27T13:06:52.274Z,551.25
2018-02-27T13:08:44.034Z,551.25
2018-02-27T13:09:44.606Z,551.25
2018-02-27T13:11:35.709Z,562.50
2018-02-27T13:12:35.625Z,511.88
2018-02-27T13:14:27.626Z,466.88
2018-02-27T13:15:27.542Z,450.00
2018-02-27T13:17:19.304Z,444.38
2018-02-27T13:18:19.233Z,450.00
2018-02-27T13:20:12.046Z,455.63
2018-02-27T13:21:11.957Z,455.63
2018-02-27T13:23:04.707Z,438.75
2018-02-27T13:24:04.635Z,438.75
2018-02-27T13:25:56.403Z,421.88
2018-02-27T13:26:56.316Z,421.88
2018-02-27T13:28:49.190Z,421.88
2018-02-27T13:29:50.898Z,421.88
2018-02-27T13:31:41.864Z,421.88
2018-02-27T13:32:41.806Z,416.25
2018-02-27T13:34:33.514Z,410.63
2018-02-27T13:35:33.471Z,416.25
2018-02-27T13:37:25.212Z,405.00
2018-02-27T13:38:25.134Z,399.38
2018-02-27T13:40:17.881Z,388.13
2018-02-27T13:41:17.811Z,382.50
2018-02-27T13:43:09.598Z,388.13
2018-02-27T13:44:09.476Z,388.13
2018-02-27T13:46:02.243Z,382.50
2018-02-27T13:47:02.176Z,382.50
2018-02-27T13:48:54.942Z,371.25
2018-02-27T13:49:54.857Z,360.00
2018-02-27T13:51:46.831Z,348.75
2018-02-27T13:52:46.728Z,343.13
2018-02-27T13:54:38.481Z,331.88
2018-02-27T13:55:38.470Z,337.50
2018-02-27T13:57:31.331Z,331.88
2018-02-27T13:58:31.122Z,331.88
2018-02-27T14:00:22.859Z,331.88
2018-02-27T14:01:22.779Z,326.25
2018-02-27T14:03:14.666Z,331.88
2018-02-27T14:04:14.577Z,337.50
2018-02-27T14:06:06.416Z,343.13
2018-02-27T14:07:06.256Z,348.75
2018-02-27T14:08:58.016Z,348.75
2018-02-27T14:09:57.930Z,348.75
2018-02-27T14:11:49.696Z,348.75
2018-02-27T14:12:49.604Z,348.75
2018-02-27T14:14:41.389Z,354.38
2018-02-27T14:15:41.299Z,348.75
2018-02-27T14:17:33.054Z,343.13
2018-02-27T14:18:32.974Z,337.50
2018-02-27T14:20:24.725Z,337.50
2018-02-27T14:21:24.646Z,331.88
2018-02-27T14:23:16.416Z,326.25
2018-02-27T14:24:16.322Z,320.63
2018-02-27T14:26:08.065Z,315.00
2018-02-27T14:27:07.999Z,315.00
2018-02-27T14:28:59.816Z,309.38
2018-02-27T14:29:59.729Z,309.38
2018-02-27T14:31:51.560Z,309.38
2018-02-27T14:32:51.488Z,309.38
2018-02-27T14:34:43.242Z,309.38
2018-02-27T14:35:43.151Z,309.38
2018-02-27T14:37:34.907Z,309.38
2018-02-27T14:38:34.836Z,309.38
2018-02-27T14:40:27.616Z,298.13
2018-02-27T14:41:27.528Z,292.50
2018-02-27T14:43:19.282Z,286.88
2018-02-27T14:44:19.215Z,281.25
2018-02-27T14:46:11.972Z,275.63
2018-02-27T14:47:11.888Z,270.00
2018-02-27T14:49:03.646Z,264.38
2018-02-27T14:50:03.559Z,264.38
2018-02-27T14:51:55.294Z,264.38
2018-02-27T14:52:55.221Z,258.75
2018-02-27T14:54:46.982Z,258.75
2018-02-27T14:55:46.900Z,253.13
2018-02-27T14:57:38.644Z,253.13
2018-02-27T14:58:38.572Z,253.13
2018-02-27T15:00:30.345Z,253.13
2018-02-27T15:01:30.239Z,253.13
2018-02-27T15:03:21.982Z,247.50
2018-02-27T15:04:21.933Z,247.50
2018-02-27T15:06:13.670Z,247.50
2018-02-27T15:07:13.577Z,241.88
2018-02-27T15:09:05.324Z,241.88
2018-02-27T15:10:05.250Z,241.88
2018-02-27T15:11:57.001Z,241.88
2018-02-27T15:12:56.922Z,241.88
2018-02-27T15:14:48.677Z,247.50
2018-02-27T15:15:48.591Z,247.50
2018-02-27T15:17:40.351Z,236.25
2018-02-27T15:18:40.280Z,225.00
2018-02-27T15:20:32.112Z,236.25
2018-02-27T15:21:31.944Z,225.00
2018-02-27T15:23:23.693Z,230.63
2018-02-27T15:24:23.639Z,236.25
2018-02-27T15:26:15.361Z,241.88
2018-02-27T15:27:15.272Z,236.25
2018-02-27T15:29:08.016Z,225.00
2018-02-27T15:30:07.996Z,219.38
2018-02-27T15:31:59.680Z,208.13
2018-02-27T15:32:59.642Z,208.13
2018-02-27T15:34:51.873Z,191.25
2018-02-27T15:35:51.785Z,185.63
2018-02-27T15:37:44.584Z,168.75
2018-02-27T15:38:44.476Z,163.13
2018-02-27T15:40:36.332Z,140.63
2018-02-27T15:41:36.128Z,129.38
2018-02-27T15:43:28.865Z,118.13
2018-02-27T15:44:28.799Z,112.50
2018-02-27T15:46:20.593Z,101.25
2018-02-27T15:47:20.508Z,95.63
2018-02-27T15:49:12.276Z,95.63
2018-02-27T15:50:12.190Z,90.00
2018-02-27T15:52:03.906Z,84.38
2018-02-27T15:53:03.825Z,84.38
2018-02-27T15:54:55.638Z,78.75
2018-02-27T15:55:55.576Z,73.13
2018-02-27T15:57:47.289Z,61.88
2018-02-27T15:58:47.208Z,61.88
2018-02-27T16:00:39.021Z,56.25
2018-02-27T16:01:39.176Z,56.25
2018-02-27T16:03:30.715Z,56.25
2018-02-27T16:04:30.662Z,56.25
2018-02-27T16:06:22.578Z,56.25
2018-02-27T16:07:22.441Z,50.63
2018-02-27T16:09:14.185Z,50.63
2018-02-27T16:10:14.153Z,45.00
2018-02-27T16:12:05.847Z,45.00
2018-02-27T16:13:05.761Z,45.00
2018-02-27T16:14:57.549Z,39.38
2018-02-27T16:15:57.478Z,39.38
2018-02-27T16:17:49.263Z,33.75
2018-02-27T16:18:49.166Z,33.75
2018-02-27T16:20:40.891Z,33.75
2018-02-27T16:21:40.854Z,28.13
2018-02-27T16:23:32.679Z,28.13
2018-02-27T16:24:32.598Z,28.13
2018-02-27T16:26:24.449Z,22.50
2018-02-27T16:27:24.365Z,22.50
2018-02-27T16:29:16.156Z,22.50
2018-02-27T16:30:16.071Z,16.88
2018-02-27T16:32:07.826Z,16.88
2018-02-27T16:33:07.739Z,16.88
2018-02-27T16:34:59.472Z,11.25
2018-02-27T16:35:59.414Z,11.25
2018-02-27T16:37:51.138Z,11.25
2018-02-27T16:38:51.050Z,11.25
2018-02-27T16:40:42.844Z,5.63
2018-02-27T16:41:42.775Z,5.63
2018-02-27T16:43:34.489Z,5.63
2018-02-27T16:44:34.412Z,5.63
2018-02-27T16:46:26.164Z,5.63
2018-02-27T16:47:26.066Z,0.00
2018-02-27T16:49:17.812Z,0.00
2018-02-27T16:50:17.769Z,0.00
2018-02-27T16:52:09.590Z,0.00
2018-02-27T16:53:09.387Z,0.00
2018-02-27T16:55:01.165Z,0.00
2018-02-27T16:56:01.082Z,0.00
2018-02-27T16:57:52.874Z,0.00
2018-02-27T16:58:52.795Z,0.00
2018-02-27T17:00:44.601Z,0.00
2018-02-27T17:01:44.510Z,0.00
2018-02-27T17:03:36.342Z,0.00
2018-02-27T17:04:36.258Z,0.00
2018-02-27T17:06:28.191Z,0.00
2018-02-27T17:07:28.104Z,0.00
2018-02-27T17:09:19.844Z,0.00
2018-02-27T17:10:19.760Z,0.00
2018-02-27T17:12:11.526Z,0.00
2018-02-27T17:13:11.430Z,0.00
2018-02-27T17:15:03.193Z,0.00
2018-02-27T17:16:03.103Z,0.00
2018-02-27T17:17:54.987Z,0.00
2018-02-27T17:18:54.902Z,0.00
2018-02-27T17:20:46.822Z,0.00
2018-02-27T17:21:46.709Z,0.00
2018-02-27T17:23:38.458Z,0.00
2018-02-27T17:24:38.386Z,0.00
2018-02-27T17:26:30.147Z,0.00
2018-02-27T17:27:30.059Z,0.00
2018-02-27T17:29:21.849Z,0.00
2018-02-27T17:30:21.771Z,0.00
2018-02-27T17:32:13.581Z,0.00
2018-02-27T17:33:13.459Z,0.00
2018-02-27T17:35:06.362Z,0.00
2018-02-27T17:36:06.071Z,0.00
2018-02-27T17:37:56.897Z,0.00
2018-02-27T17:38:56.801Z,0.00
2018-02-27T17:40:48.545Z,0.00
2018-02-27T17:41:48.449Z,0.00
2018-02-27T17:43:40.276Z,0.00
2018-02-27T17:44:40.258Z,0.00
2018-02-27T17:46:32.105Z,0.00
2018-02-27T17:47:31.891Z,0.00
2018-02-27T17:49:23.683Z,0.00
2018-02-27T17:50:23.648Z,0.00
2018-02-27T17:52:15.374Z,0.00
2018-02-27T17:53:15.327Z,0.00
2018-02-27T17:55:07.075Z,0.00
2018-02-27T17:56:07.034Z,0.00
2018-02-27T17:57:58.742Z,0.00
2018-02-27T17:58:58.667Z,0.00
2018-02-27T18:00:50.507Z,0.00
2018-02-27T18:01:50.425Z,0.00
2018-02-27T18:03:42.202Z,0.00
2018-02-27T18:04:42.117Z,0.00
2018-02-27T18:06:33.990Z,0.00
2018-02-27T18:07:33.801Z,0.00
2018-02-27T18:09:25.566Z,0.00
2018-02-27T18:10:25.492Z,0.00
2018-02-27T18:12:17.181Z,0.00
2018-02-27T18:13:17.112Z,0.00
2018-02-27T18:15:08.904Z,0.00
2018-02-27T18:16:08.792Z,0.00
2018-02-27T18:18:00.585Z,0.00